Archival Weather

Randolph Afb

Universal City, Texas (KRND)

Report from: Monday, September 26, 2022 1:55 PM CDT
Current time: Saturday, February 4, 2023 9:54 PM CST

Current weather
Weather history
Weather forecast

Temperature33.8°C (92.8°F)
Heat index31.8°C (89.2°F)
Dew point7.7°C (45.9°F)
Winds 12 kts (6.2 m/s, 13.8 mph) North (10°)
Visibility10 mi. (16.1 km)
Clouds Sky clear
Altimeter30.02 in.Hg (1017 mB)
Relative humidity20 %
Density altitude2,181 ft. (665 m)
Sea-level pressure101.6 kPa (1016 mB, 29.99 in.Hg)
Remarks Fully automated report
Automated weather observing station with precipitation discriminator
Flight conditions Visual Meteorological Conditions
Raw dataKRND 261855Z AUTO 01012KT 10SM CLR 34/08 A3002 RMK AO2 SLP156 T03380077
An unhandled exception has occurred. See browser dev tools for details. Reload 🗙